KCEF/CEF METAR and TAF weather

Enter ICAO airport designator
Station Type Date Time Source
KCEF METAR 2019/06/26 05:39 UTC NOAA

KCEF 260539Z 00000KT 3SM BR BKN003 20/20 A2992 RMK AO2A TWR VIS 1 SLP137


Station Type Date Time Source
KCEF Decoded METAR 2019/06/26 05:39 UTC NOAA

Chicopee Falls / Westover Air Force Base, MA, United States (KCEF) 42-12N 072-32W 75M
Jun 26, 2019 - 01:39 AM EDT / 2019.06.26 0539 UTC
Wind: Calm:0
Visibility: 3 mile(s):0
Sky conditions: mostly cloudy
Weather: mist
Temperature: 68 F (20 C)
Dew Point: 68 F (20 C)
Relative Humidity: 100%
Pressure (altimeter): 29.92 in. Hg (1013 hPa)
ob: KCEF 260539Z 00000KT 3SM BR BKN003 20/20 A2992 RMK AO2A TWR VIS 1 SLP137
cycle: 5

Station Type Date Time Source
KCEF TAF 2019/06/26 03:59 UTC NOAA

TAF
AMD KCEF 260343Z 2603/2708 16007KT 9999 BKN004 BKN075 OVC200 QNH2990INS
TEMPO 2604/2606 BKN008
BECMG 2605/2606 32009KT 9999 FEW030 SCT080 SCT250 QNH2991INS
BECMG 2622/2623 24007KT 9999 -SHRA SCT040 BKN130 QNH2998INS
BECMG 2703/2704 VRB06KT 9999 NSW FEW040 SCT080 QNH3004INS TX30/2618Z TN17/2610Z

Example: see airport list